TAF KUIN
KUIN 090520Z 0906/1006 12010KT P6SM BKN250 FM091000 15012G20KT P6SM OVC250 WS020/18040KT FM091600 18012G22KT P6SM SCT100 FM092000 22009KT P6SM FEW150=
METAR KUIN
WC KUIN
WS KUIN
WV KUIN